createdAt,value
2023-03-05T00:00:48.434Z,5.40
2023-03-05T00:03:34.348Z,5.40
2023-03-05T00:06:21.552Z,5.40
2023-03-05T00:09:06.861Z,5.40
2023-03-05T00:11:52.110Z,5.40
2023-03-05T00:14:37.509Z,5.40
2023-03-05T00:17:23.036Z,5.40
2023-03-05T00:20:09.242Z,5.40
2023-03-05T00:22:54.621Z,5.40
2023-03-05T00:25:41.060Z,5.40
2023-03-05T00:28:26.456Z,5.40
2023-03-05T00:31:11.805Z,5.30
2023-03-05T00:34:00.025Z,5.30
2023-03-05T00:36:51.116Z,5.40
2023-03-05T00:39:36.372Z,5.40
2023-03-05T00:42:21.897Z,5.40
2023-03-05T00:45:09.499Z,5.40
2023-03-05T00:47:54.380Z,5.30
2023-03-05T00:50:39.885Z,5.30
2023-03-05T00:53:25.418Z,5.30
2023-03-05T00:56:10.779Z,5.30
2023-03-05T00:58:57.256Z,5.30
2023-03-05T01:01:42.714Z,5.20
2023-03-05T01:04:28.004Z,5.30
2023-03-05T01:07:13.661Z,5.30
2023-03-05T01:09:59.012Z,5.30
2023-03-05T01:12:44.447Z,5.30
2023-03-05T01:15:29.908Z,5.20
2023-03-05T01:18:15.216Z,5.20
2023-03-05T01:21:00.602Z,5.20
2023-03-05T01:23:45.935Z,5.10
2023-03-05T01:26:31.504Z,5.10
2023-03-05T01:29:16.578Z,5.10
2023-03-05T01:32:02.346Z,5.20
2023-03-05T01:34:47.913Z,5.20
2023-03-05T01:37:33.311Z,5.20
2023-03-05T01:40:27.495Z,5.20
2023-03-05T01:43:12.804Z,5.20
2023-03-05T01:46:36.937Z,5.20
2023-03-05T01:49:26.782Z,5.20
2023-03-05T01:52:17.901Z,5.20
2023-03-05T01:55:13.739Z,5.30
2023-03-05T01:58:09.795Z,5.20
2023-03-05T02:00:55.680Z,5.20
2023-03-05T02:03:42.471Z,5.20
2023-03-05T02:06:28.098Z,5.10
2023-03-05T02:09:13.774Z,5.20
2023-03-05T02:11:59.404Z,5.10
2023-03-05T02:14:47.787Z,5.10
2023-03-05T02:17:33.143Z,5.00
2023-03-05T02:20:28.443Z,4.90
2023-03-05T02:23:14.130Z,4.90
2023-03-05T02:25:59.849Z,4.90
2023-03-05T02:28:50.409Z,4.70
2023-03-05T02:31:36.138Z,4.50
2023-03-05T02:34:22.958Z,4.50
2023-03-05T02:37:09.358Z,4.50
2023-03-05T02:39:54.944Z,4.60
2023-03-05T02:42:40.535Z,4.60
2023-03-05T02:45:25.864Z,4.40
2023-03-05T02:48:11.179Z,4.40
2023-03-05T02:50:57.209Z,4.40
2023-03-05T02:53:42.320Z,4.40
2023-03-05T02:56:27.658Z,4.40
2023-03-05T02:59:13.250Z,4.40
2023-03-05T03:01:58.571Z,4.50
2023-03-05T03:04:45.170Z,4.50
2023-03-05T03:07:30.110Z,4.50
2023-03-05T03:10:15.721Z,4.40
2023-03-05T03:13:00.843Z,4.40
2023-03-05T03:15:46.191Z,4.40
2023-03-05T03:18:31.834Z,4.50
2023-03-05T03:21:20.511Z,4.60
2023-03-05T03:24:06.107Z,4.60
2023-03-05T03:26:51.553Z,4.50
2023-03-05T03:29:37.023Z,4.60
2023-03-05T03:32:22.593Z,4.60
2023-03-05T03:35:08.903Z,4.70
2023-03-05T03:37:54.222Z,4.70
2023-03-05T03:40:41.602Z,4.70
2023-03-05T03:43:26.692Z,4.70
2023-03-05T03:46:12.081Z,4.70
2023-03-05T03:48:57.494Z,4.70
2023-03-05T03:51:43.014Z,4.70
2023-03-05T03:54:28.191Z,4.70
2023-03-05T03:57:13.430Z,4.70
2023-03-05T03:59:58.985Z,4.70
2023-03-05T04:02:44.074Z,4.70
2023-03-05T04:05:29.355Z,4.70
2023-03-05T04:08:14.830Z,4.70
2023-03-05T04:11:02.004Z,4.70
2023-03-05T04:13:47.386Z,4.70
2023-03-05T04:16:32.783Z,4.70
2023-03-05T04:19:18.308Z,4.60
2023-03-05T04:22:03.725Z,4.60
2023-03-05T04:24:49.068Z,4.60
2023-03-05T04:27:36.045Z,4.50
2023-03-05T04:30:21.331Z,4.50
2023-03-05T04:33:06.821Z,4.30
2023-03-05T04:35:52.367Z,4.30
2023-03-05T04:38:37.720Z,4.30
2023-03-05T04:41:23.398Z,4.20
2023-03-05T04:44:08.703Z,4.20
2023-03-05T04:46:54.015Z,4.20
2023-03-05T04:49:39.622Z,4.20
2023-03-05T04:52:24.991Z,4.20
2023-03-05T04:55:12.432Z,4.20
2023-03-05T04:57:57.865Z,4.30
2023-03-05T05:00:43.055Z,4.30
2023-03-05T05:03:28.615Z,4.30
2023-03-05T05:06:14.040Z,4.30
2023-03-05T05:08:59.429Z,4.20
2023-03-05T05:11:44.767Z,4.20
2023-03-05T05:14:30.173Z,4.20
2023-03-05T05:17:15.460Z,4.20
2023-03-05T05:20:01.379Z,4.30
2023-03-05T05:22:46.729Z,4.30
2023-03-05T05:25:32.158Z,4.30
2023-03-05T05:28:17.589Z,4.30
2023-03-05T05:31:07.715Z,4.40
2023-03-05T05:33:53.122Z,4.40
2023-03-05T05:36:38.708Z,4.50
2023-03-05T05:39:24.047Z,4.50
2023-03-05T05:42:09.317Z,4.50
2023-03-05T05:44:55.523Z,4.50
2023-03-05T05:47:40.514Z,4.50
2023-03-05T05:50:27.294Z,4.50
2023-03-05T05:53:12.438Z,4.50
2023-03-05T05:55:57.710Z,4.60
2023-03-05T05:58:44.576Z,4.50
2023-03-05T06:01:31.882Z,4.40
2023-03-05T06:04:17.023Z,4.40
2023-03-05T06:07:03.276Z,4.50
2023-03-05T06:09:48.724Z,4.40
2023-03-05T06:12:34.104Z,4.40
2023-03-05T06:15:19.720Z,4.50
2023-03-05T06:18:04.869Z,4.50
2023-03-05T06:21:02.880Z,4.50
2023-03-05T06:23:48.910Z,4.40
2023-03-05T06:26:34.239Z,4.40
2023-03-05T06:29:19.548Z,4.50
2023-03-05T06:32:05.326Z,4.40
2023-03-05T06:34:51.413Z,4.40
2023-03-05T06:37:36.701Z,4.30
2023-03-05T06:40:22.200Z,4.30
2023-03-05T06:43:07.480Z,4.30
2023-03-05T06:46:05.560Z,4.20
2023-03-05T06:48:52.357Z,4.20
2023-03-05T06:51:39.615Z,4.20
2023-03-05T06:54:24.953Z,4.20
2023-03-05T06:57:11.084Z,4.30
2023-03-05T06:59:56.251Z,4.30
2023-03-05T07:02:41.815Z,4.30
2023-03-05T07:05:27.060Z,4.30
2023-03-05T07:08:12.594Z,4.40
2023-03-05T07:10:58.325Z,4.40
2023-03-05T07:13:43.877Z,4.20
2023-03-05T07:16:32.833Z,4.20
2023-03-05T07:19:18.073Z,4.20
2023-03-05T07:22:03.531Z,4.10
2023-03-05T07:24:48.847Z,4.20
2023-03-05T07:27:37.954Z,4.20
2023-03-05T07:30:23.763Z,4.20
2023-03-05T07:33:08.844Z,4.20
2023-03-05T07:35:55.358Z,4.20
2023-03-05T07:38:40.845Z,4.10
2023-03-05T07:41:26.302Z,4.10
2023-03-05T07:44:11.601Z,4.10
2023-03-05T07:46:57.073Z,4.10
2023-03-05T07:49:42.679Z,3.90
2023-03-05T07:52:28.160Z,3.90
2023-03-05T07:55:13.545Z,3.80
2023-03-05T07:57:59.061Z,3.80
2023-03-05T08:00:44.403Z,3.90
2023-03-05T08:03:29.855Z,3.80
2023-03-05T08:06:15.783Z,3.90
2023-03-05T08:09:01.300Z,4.00
2023-03-05T08:11:46.808Z,4.10
2023-03-05T08:14:32.110Z,4.20
2023-03-05T08:17:17.637Z,4.30
2023-03-05T08:20:05.445Z,4.30
2023-03-05T08:22:51.069Z,4.30
2023-03-05T08:25:36.212Z,4.40
2023-03-05T08:28:22.053Z,4.50
2023-03-05T08:31:13.158Z,4.50
2023-03-05T08:34:00.232Z,4.60
2023-03-05T08:36:45.663Z,4.50
2023-03-05T08:39:30.971Z,4.50
2023-03-05T08:42:16.336Z,4.40
2023-03-05T08:45:01.801Z,4.40
2023-03-05T08:47:47.161Z,4.40
2023-03-05T08:50:32.607Z,4.40
2023-03-05T08:53:18.025Z,4.60
2023-03-05T08:56:03.696Z,4.60
2023-03-05T08:58:49.274Z,4.50
2023-03-05T09:01:34.695Z,4.40
2023-03-05T09:04:20.197Z,4.20
2023-03-05T09:07:05.920Z,4.20
2023-03-05T09:09:51.385Z,4.20
2023-03-05T09:12:37.693Z,4.10
2023-03-05T09:15:23.152Z,4.10
2023-03-05T09:18:09.224Z,4.10
2023-03-05T09:20:54.637Z,4.20
2023-03-05T09:23:40.227Z,4.30
2023-03-05T09:26:25.487Z,4.40
2023-03-05T09:29:10.998Z,4.50
2023-03-05T09:31:56.548Z,4.60
2023-03-05T09:34:42.053Z,4.60
2023-03-05T09:37:29.391Z,4.60
2023-03-05T09:40:17.858Z,4.40
2023-03-05T09:43:51.612Z,4.50
2023-03-05T09:46:47.552Z,4.60
2023-03-05T09:50:19.139Z,4.60
2023-03-05T09:53:26.704Z,4.50
2023-03-05T09:56:36.064Z,4.60
2023-03-05T09:59:28.507Z,4.60
2023-03-05T10:02:25.965Z,4.70
2023-03-05T10:05:30.951Z,4.80
2023-03-05T10:08:21.197Z,4.70
2023-03-05T10:11:21.703Z,4.70
2023-03-05T10:14:13.832Z,4.80
2023-03-05T10:17:20.270Z,4.80
2023-03-05T10:20:27.318Z,4.70
2023-03-05T10:23:24.749Z,4.80
2023-03-05T10:26:19.382Z,4.70
2023-03-05T10:29:38.503Z,4.60
2023-03-05T10:33:01.857Z,4.70
2023-03-05T10:35:55.250Z,4.80
2023-03-05T10:38:49.637Z,4.90
2023-03-05T10:41:43.967Z,5.00
2023-03-05T10:44:59.997Z,5.00
2023-03-05T10:47:57.369Z,5.00
2023-03-05T10:50:48.246Z,5.00
2023-03-05T10:53:42.000Z,4.90
2023-03-05T10:56:29.370Z,5.10
2023-03-05T10:59:14.785Z,5.30
2023-03-05T11:02:08.545Z,5.20
2023-03-05T11:04:54.826Z,5.30
2023-03-05T11:07:40.195Z,5.40
2023-03-05T11:10:25.455Z,5.20
2023-03-05T11:13:26.130Z,5.40
2023-03-05T11:16:21.130Z,5.20
2023-03-05T11:19:17.925Z,5.40
2023-03-05T11:22:20.631Z,5.40
2023-03-05T11:25:14.636Z,5.30
2023-03-05T11:28:02.206Z,5.30
2023-03-05T11:31:07.831Z,5.40
2023-03-05T11:34:05.433Z,5.30
2023-03-05T11:36:53.820Z,5.20
2023-03-05T11:39:40.214Z,5.00
2023-03-05T11:42:25.543Z,5.00
2023-03-05T11:45:18.626Z,5.10
2023-03-05T11:48:13.117Z,5.20
2023-03-05T11:51:01.605Z,5.30
2023-03-05T11:53:51.269Z,5.30
2023-03-05T11:56:37.410Z,5.30
2023-03-05T11:59:31.573Z,5.30
2023-03-05T12:02:25.935Z,5.40
2023-03-05T12:05:15.799Z,5.20
2023-03-05T12:08:02.394Z,5.20
2023-03-05T12:10:47.637Z,5.20
2023-03-05T12:13:42.487Z,5.00
2023-03-05T12:16:34.986Z,5.00
2023-03-05T12:19:41.217Z,5.00
2023-03-05T12:22:40.895Z,4.90
2023-03-05T12:25:35.349Z,4.90
2023-03-05T12:28:35.939Z,4.90
2023-03-05T12:31:48.956Z,5.00
2023-03-05T12:34:40.680Z,4.80
2023-03-05T12:37:25.901Z,4.90
2023-03-05T12:40:19.770Z,5.00
2023-03-05T12:43:28.154Z,5.00
2023-03-05T12:46:29.104Z,5.00
2023-03-05T12:49:21.153Z,5.00
2023-03-05T12:52:22.772Z,5.10
2023-03-05T12:55:45.689Z,5.50
2023-03-05T12:58:56.889Z,5.70
2023-03-05T13:01:52.848Z,5.70
2023-03-05T13:04:45.226Z,5.70
2023-03-05T13:07:30.601Z,5.60
2023-03-05T13:10:24.024Z,5.60
2023-03-05T13:13:14.602Z,5.60
2023-03-05T13:16:01.355Z,5.70
2023-03-05T13:18:48.777Z,5.50
2023-03-05T13:21:35.365Z,5.50
2023-03-05T13:24:21.913Z,5.50
2023-03-05T13:27:30.197Z,5.50
2023-03-05T13:30:28.256Z,5.60
2023-03-05T13:33:17.213Z,5.60
2023-03-05T13:36:03.942Z,5.60
2023-03-05T13:38:49.752Z,5.70
2023-03-05T13:41:34.918Z,5.60
2023-03-05T13:44:22.048Z,5.70
2023-03-05T13:47:18.937Z,5.60
2023-03-05T13:50:07.848Z,5.60
2023-03-05T13:52:53.870Z,5.40
2023-03-05T13:55:39.500Z,5.30
2023-03-05T13:58:54.128Z,5.30
2023-03-05T14:01:44.121Z,5.20
2023-03-05T14:04:34.150Z,5.20
2023-03-05T14:07:28.516Z,5.10
2023-03-05T14:10:38.967Z,5.00
2023-03-05T14:13:27.153Z,5.00
2023-03-05T14:16:25.063Z,5.10
2023-03-05T14:19:38.847Z,5.20
2023-03-05T14:22:36.329Z,5.20
2023-03-05T14:25:24.638Z,5.20
2023-03-05T14:28:16.078Z,5.20
2023-03-05T14:31:01.703Z,5.30
2023-03-05T14:33:48.328Z,5.40
2023-03-05T14:36:34.734Z,5.40
2023-03-05T14:39:34.184Z,5.50
2023-03-05T14:42:39.220Z,5.50
2023-03-05T14:45:37.336Z,5.40
2023-03-05T14:48:22.534Z,5.50
2023-03-05T14:51:10.716Z,5.60
2023-03-05T14:53:57.918Z,5.50
2023-03-05T14:56:43.414Z,5.40
2023-03-05T14:59:28.797Z,5.40
2023-03-05T15:02:23.204Z,5.40
2023-03-05T15:07:59.386Z,5.40
2023-03-05T15:10:44.581Z,5.40
2023-03-05T15:13:30.174Z,5.40
2023-03-05T15:16:17.495Z,5.30
2023-03-05T15:19:03.760Z,5.20
2023-03-05T15:21:48.784Z,5.10
2023-03-05T15:24:34.251Z,5.00
2023-03-05T15:27:19.620Z,4.90
2023-03-05T15:30:07.223Z,5.00
2023-03-05T15:32:54.860Z,4.90
2023-03-05T15:35:41.194Z,5.10
2023-03-05T15:38:26.908Z,5.20
2023-03-05T15:41:13.121Z,5.30
2023-03-05T15:43:58.114Z,5.30
2023-03-05T15:46:43.428Z,5.40
2023-03-05T15:49:28.911Z,5.40
2023-03-05T15:52:15.612Z,5.40
2023-03-05T15:55:01.636Z,5.50
2023-03-05T15:57:49.624Z,5.50
2023-03-05T16:00:37.140Z,5.50
2023-03-05T16:03:23.198Z,5.40
2023-03-05T16:06:09.345Z,5.40
2023-03-05T16:09:00.479Z,5.40
2023-03-05T16:11:48.059Z,5.30
2023-03-05T16:14:33.543Z,5.20
2023-03-05T16:17:20.734Z,5.30
2023-03-05T16:20:06.471Z,5.40
2023-03-05T16:22:51.936Z,5.50
2023-03-05T16:25:37.693Z,5.50
2023-03-05T16:28:23.136Z,5.50
2023-03-05T16:31:08.717Z,5.50
2023-03-05T16:33:53.937Z,5.50
2023-03-05T16:36:41.140Z,5.50
2023-03-05T16:39:26.229Z,5.50
2023-03-05T16:42:13.540Z,5.50
2023-03-05T16:44:59.124Z,5.50
2023-03-05T16:47:44.343Z,5.30
2023-03-05T16:50:29.415Z,5.20
2023-03-05T16:53:14.706Z,5.20
2023-03-05T16:56:04.035Z,5.20
2023-03-05T16:58:52.192Z,5.10
2023-03-05T17:01:39.249Z,5.20
2023-03-05T17:04:24.729Z,5.10
2023-03-05T17:07:10.069Z,5.10
2023-03-05T17:09:55.598Z,5.20
2023-03-05T17:12:41.262Z,5.20
2023-03-05T17:15:26.560Z,5.20
2023-03-05T17:18:12.120Z,5.20
2023-03-05T17:20:57.356Z,5.20
2023-03-05T17:23:42.802Z,5.30
2023-03-05T17:26:28.194Z,5.30
2023-03-05T17:29:13.577Z,5.30
2023-03-05T17:31:58.893Z,5.20
2023-03-05T17:34:44.454Z,5.20
2023-03-05T17:37:30.177Z,5.30
2023-03-05T17:40:16.410Z,5.30
2023-03-05T17:43:02.463Z,5.20
2023-03-05T17:45:48.144Z,5.10
2023-03-05T17:48:34.083Z,5.00
2023-03-05T17:51:19.162Z,5.00
2023-03-05T17:54:05.703Z,5.10
2023-03-05T17:56:54.860Z,5.10
2023-03-05T17:59:39.843Z,5.00
2023-03-05T18:02:25.458Z,5.00
2023-03-05T18:05:11.278Z,5.10
2023-03-05T18:07:56.803Z,5.00
2023-03-05T18:10:42.016Z,5.00
2023-03-05T18:13:27.382Z,5.10
2023-03-05T18:16:16.766Z,5.10
2023-03-05T18:19:01.932Z,5.10
2023-03-05T18:21:47.585Z,5.20
2023-03-05T18:24:33.224Z,5.20
2023-03-05T18:27:18.496Z,5.20
2023-03-05T18:30:04.148Z,5.20
2023-03-05T18:32:50.081Z,5.10
2023-03-05T18:35:35.302Z,5.10
2023-03-05T18:38:26.533Z,5.00
2023-03-05T18:41:22.994Z,5.00
2023-03-05T18:44:08.850Z,5.10
2023-03-05T18:46:54.464Z,5.00
2023-03-05T18:49:39.941Z,5.00
2023-03-05T18:52:25.363Z,5.10
2023-03-05T18:55:24.947Z,5.00
2023-03-05T18:58:13.996Z,5.00
2023-03-05T19:00:59.278Z,4.80
2023-03-05T19:03:45.657Z,4.90
2023-03-05T19:06:30.804Z,4.90
2023-03-05T19:09:26.209Z,5.00
2023-03-05T19:12:11.338Z,5.00
2023-03-05T19:14:58.553Z,5.10
2023-03-05T19:17:43.742Z,5.00
2023-03-05T19:20:29.213Z,5.00
2023-03-05T19:23:14.529Z,5.10
2023-03-05T19:26:01.540Z,5.00
2023-03-05T19:28:46.903Z,5.10
2023-03-05T19:31:32.183Z,5.10
2023-03-05T19:34:18.437Z,5.20
2023-03-05T19:37:04.688Z,5.20
2023-03-05T19:39:50.095Z,5.20
2023-03-05T19:42:37.332Z,5.20
2023-03-05T19:45:22.452Z,5.20
2023-03-05T19:48:08.097Z,5.20
2023-03-05T19:50:53.235Z,5.20
2023-03-05T19:53:40.548Z,5.20
2023-03-05T19:56:25.882Z,5.20
2023-03-05T19:59:11.449Z,5.10
2023-03-05T20:01:57.422Z,5.10
2023-03-05T20:04:42.958Z,5.20
2023-03-05T20:07:28.296Z,5.10
2023-03-05T20:10:13.784Z,5.10
2023-03-05T20:12:59.121Z,5.10
2023-03-05T20:15:44.487Z,5.20
2023-03-05T20:18:30.340Z,5.20
2023-03-05T20:21:21.153Z,5.20
2023-03-05T20:24:09.955Z,5.20
2023-03-05T20:26:55.490Z,5.20
2023-03-05T20:29:41.042Z,5.20
2023-03-05T20:32:26.501Z,5.10
2023-03-05T20:35:17.069Z,5.20
2023-03-05T20:38:20.759Z,5.20
2023-03-05T20:41:12.351Z,5.20
2023-03-05T20:43:57.768Z,5.10
2023-03-05T20:46:52.511Z,5.10
2023-03-05T20:49:38.292Z,5.00
2023-03-05T20:52:23.783Z,5.10
2023-03-05T20:55:09.831Z,5.10
2023-03-05T20:57:56.538Z,5.00
2023-03-05T21:00:42.447Z,5.00
2023-03-05T21:03:27.780Z,5.00
2023-03-05T21:06:13.380Z,4.90
2023-03-05T21:08:58.848Z,4.90
2023-03-05T21:11:43.959Z,4.80
2023-03-05T21:14:29.462Z,4.80
2023-03-05T21:17:15.085Z,4.70
2023-03-05T21:20:01.234Z,4.80
2023-03-05T21:22:46.373Z,4.80
2023-03-05T21:25:33.052Z,4.80
2023-03-05T21:28:18.735Z,4.90
2023-03-05T21:31:10.259Z,4.90
2023-03-05T21:33:55.339Z,4.90
2023-03-05T21:36:41.218Z,5.00
2023-03-05T21:39:26.574Z,5.00
2023-03-05T21:42:13.688Z,5.10
2023-03-05T21:44:59.143Z,5.10
2023-03-05T21:47:45.114Z,5.00
2023-03-05T21:50:33.285Z,5.00
2023-03-05T21:53:19.812Z,5.00
2023-03-05T21:56:17.879Z,5.00
2023-03-05T21:59:03.120Z,4.90
2023-03-05T22:01:48.908Z,5.00
2023-03-05T22:04:34.954Z,5.00
2023-03-05T22:07:20.486Z,5.00
2023-03-05T22:10:06.834Z,5.00
2023-03-05T22:13:00.699Z,5.00
2023-03-05T22:15:50.351Z,5.00
2023-03-05T22:18:36.353Z,5.00
2023-03-05T22:21:23.646Z,5.00
2023-03-05T22:24:09.028Z,5.00
2023-03-05T22:26:54.282Z,4.90
2023-03-05T22:29:39.602Z,5.00
2023-03-05T22:32:25.085Z,5.00
2023-03-05T22:35:13.900Z,5.00
2023-03-05T22:37:59.272Z,5.00
2023-03-05T22:40:46.459Z,5.00
2023-03-05T22:43:31.757Z,4.90
2023-03-05T22:46:17.070Z,4.90
2023-03-05T22:49:02.307Z,4.90
2023-03-05T22:51:47.692Z,4.90
2023-03-05T22:54:33.319Z,4.80
2023-03-05T22:57:18.686Z,4.80
2023-03-05T23:00:05.996Z,4.70
2023-03-05T23:02:51.635Z,4.70
2023-03-05T23:05:38.816Z,4.60
2023-03-05T23:08:23.959Z,4.60
2023-03-05T23:11:11.873Z,4.50
2023-03-05T23:13:57.165Z,4.50
2023-03-05T23:16:42.540Z,4.60
2023-03-05T23:19:27.929Z,4.60
2023-03-05T23:22:13.837Z,4.60
2023-03-05T23:24:59.253Z,4.60
2023-03-05T23:27:44.553Z,4.60
2023-03-05T23:30:32.961Z,4.60
2023-03-05T23:33:20.604Z,4.60
2023-03-05T23:36:05.964Z,4.60
2023-03-05T23:38:57.486Z,4.60
2023-03-05T23:41:42.839Z,4.60
2023-03-05T23:44:28.253Z,4.60
2023-03-05T23:47:13.671Z,4.60
2023-03-05T23:49:59.144Z,4.60
2023-03-05T23:52:45.113Z,4.60
2023-03-05T23:55:36.344Z,4.60
2023-03-05T23:58:22.130Z,4.50
